AirNav   Air Wisconsin pilot careers
 
 1596 users online  

1K2 Lindsay Municipal Airport
Lindsay, Oklahoma, USA

GOING TO LINDSAY?


FAA INFORMATION EFFECTIVE 29 MARCH 2018

Location

FAA Identifier: 1K2
Lat/Long: 34-50-58.0250N / 097-35-07.0500W
34-50.967083N / 097-35.117500W
34.8494514 / -97.5852917
(estimated)
Elevation: 968 ft. / 295 m (estimated)
Variation: 07E (1985)
From city: 2 miles NE of LINDSAY, OK
Time zone: UTC -5 (UTC -6 during Standard Time)
Zip code: 73052

Airport Operations

Airport use: Open to the public
Control tower: no
ARTCC: FORT WORTH CENTER
FSS: MC ALESTER FLIGHT SERVICE STATION
NOTAMs facility: MLC (NOTAM-D service available)
Attendance: UNATNDD
Wind indicator: lighted
Segmented circle: yes
Lights: ACTVT MIRL RY 01/19 - CTAF.
Beacon: white-green (lighted land airport)
Operates sunset to sunrise.

Airport Communications

CTAF: 122.9
WX AWOS-3 at PVJ (20 nm SE): 118.675 (405-238-4452)

Nearby radio navigation aids

VOR radial/distance  VOR name  Freq  Var
IRWr171/30.6WILL ROGERS VORTAC114.1007E

 
NDB name  Hdg/Dist  Freq  Var  ID
MULDROW232/20.551206EHMY .... -- -.--

Airport Services

Parking: tiedowns
Airframe service: NONE
Powerplant service: NONE
Bottled oxygen: NONE
Bulk oxygen: NONE

Runway Information

Runway 1/19

Dimensions: 3010 x 60 ft. / 917 x 18 m
Surface: asphalt, in good condition
Weight bearing capacity: 
Single wheel: 4.0
Runway edge lights: medium intensity
RUNWAY 1  RUNWAY 19
Latitude: 34-50.727500N34-51.206667N
Longitude: 097-35.195833W097-35.039167W
Elevation: 967.9 ft.966.0 ft.
Gradient: 0.1%0.1%
Traffic pattern: leftleft
Runway heading: 008 magnetic, 015 true188 magnetic, 195 true
Markings: basic, in good conditionbasic, in good condition
Touchdown point: yes, no lightsyes, no lights
Obstructions: 17 ft. tree, 340 ft. from runway, 8:1 slope to clearnone

Airport Ownership and Management from official FAA records

Ownership: Publicly-owned
Owner: CITY OF LINDSAY
PO BOX 708, 312 S. MAIN ST.
LINDSAY, OK 73052
Phone 405-756-2019
Manager: STEPHEN MILLS
PO BOX 708, 312 S. MAIN ST.
LINDSAY, OK 73052
Phone 405-756-2019
CITY MANAGER.

Airport Operational Statistics

Aircraft based on the field: 4
Single engine airplanes: 4
    
Aircraft operations: avg 39/month *
51% transient general aviation
49% local general aviation
<1% military
* for 12-month period ending 02 March 2017

Additional Remarks

660 FT AGL ANT 3.2 MI NORTH.

Instrument Procedures

There are no published instrument procedures at 1K2.

Some nearby airports with instrument procedures:

1K4 - David Jay Perry Airport (19 nm N)
KPVJ - Pauls Valley Municipal Airport (20 nm SE)
KHMY - Muldrow Army Heliport (20 nm NE)
KCHK - Chickasha Municipal Airport (24 nm NW)
KOUN - University of Oklahoma Westheimer Airport (24 nm N)
 
Loc | Ops | Rwys | IFR | FBO | Links
Com | Nav | Svcs | Stats | Notes

AirNav Hotels Sweepstakes
 
Area around 1K2 (Lindsay Municipal Airport)
 
Road maps at: MapQuest Bing Google
 
Aerial photo
WARNING: Photo may not be current or correct
Aerial photo of 1K2 (Lindsay Municipal Airport)
Do you have a better or more recent aerial photo of Lindsay Municipal Airport that you would like to share? If so, please send us your photo.

 
Sectional chart

 
Airport distance calculator
Flying to Lindsay Municipal Airport? Find the distance to fly.

From to 1K2

Sunrise and sunset
Times for 25-Apr-2018
 Local
(UTC-5)
 Zulu
(UTC)
Morning civil twilight06:2111:21
Sunrise06:4711:47
Sunset20:0901:09
Evening civil twilight20:3601:36

Current date and time
Zulu (UTC)  25-Apr-2018 14:55:38
Local (UTC-5)  25-Apr-2018 09:55:38
 
METAR
KPVJ 
20nm SE 
251435Z AUTO 34009KT 4SM +RA BKN008 OVC012 09/09 A3021 RMK AO2 T00910091
KHMY 
20nm NE 
SuperAWOS
251355Z AUTO 00000KT 7SM 09/09 A3018
KOUN 
23nm N 
251350Z 32012KT 5SM RABR OVC007 08/07 A3020
KCHK 
24nm NW 
251435Z AUTO 33015KT 7SM RA OVC012 08/07 A3023 RMK AO2 P0006 T00770067
KDUC 
30nm SW 
251435Z AUTO 33014KT 10SM RA BKN010 OVC046 08/07 A3028 RMK AO2 LTG DSNT S P0003 T00820070
KOKC 
32nm N 
251352Z 34012KT 3SM RA BR BKN008 OVC033 07/07 A3023 RMK AO2 SLP234 P0029 T00720067
KTIK 
36nm N 
251312Z AUTO 35016KT 6SM +RA BR FEW007 08/08 A3018 RMK AO2 SLP223 $
TAF
KOUN 
23nm N 
251402Z 2514/2612 36013G21KT P6SM -RA OVC040 TEMPO 2514/2516 5SM -SHRA OVC008 FM251800 33014G22KT P6SM BKN040 FM260100 33005KT P6SM SKC
NOTAMs
Click for the latest NOTAMs
NOTAMs are issued by the DoD/FAA and will open in a separate window not controlled by AirNav.

 

 
 

Would you like to see your business listed on this page?

 If your business provides an interesting product or service to pilots, flight crews, aircraft, or users of the Lindsay Municipal Airport, you should consider listing it here.  To start the listing process, click on the button below
 
Add a business
 

Other Pages about Lindsay Municipal Airport

Update a link
 
Copyright © AirNav, LLC. All rights reserved. Privacy Policy  Contact